createdAt,value
2018-11-21T00:02:10.679Z,21.73
2018-11-21T00:05:13.346Z,20.50
2018-11-21T00:11:18.592Z,20.00
2018-11-21T00:14:20.744Z,20.08
2018-11-21T00:17:30.756Z,16.35
2018-11-21T00:20:33.541Z,18.85
2018-11-21T00:23:43.391Z,19.87
2018-11-21T00:26:45.997Z,20.50
2018-11-21T00:29:55.857Z,22.30
2018-11-21T00:32:58.383Z,20.72
2018-11-21T00:39:15.643Z,19.00
2018-11-21T00:45:33.946Z,19.12
2018-11-21T00:48:43.152Z,20.32
2018-11-21T00:51:44.029Z,18.32
2018-11-21T00:54:54.572Z,17.50
2018-11-21T00:57:56.733Z,20.02
2018-11-21T01:01:06.811Z,19.45
2018-11-21T01:04:09.396Z,20.40
2018-11-21T01:10:27.871Z,19.37
2018-11-21T01:16:46.368Z,28.17
2018-11-21T01:23:02.352Z,18.23
2018-11-21T01:29:20.141Z,18.55
2018-11-21T01:38:58.609Z,19.98
2018-11-21T01:45:15.878Z,27.45
2018-11-21T01:51:34.566Z,22.55
2018-11-21T01:57:52.100Z,21.65
2018-11-21T02:01:01.346Z,22.32
2018-11-21T02:04:03.497Z,24.85
2018-11-21T02:07:13.312Z,21.45
2018-11-21T02:10:15.799Z,20.50
2018-11-21T02:13:25.708Z,22.65
2018-11-21T02:16:28.697Z,23.52
2018-11-21T02:19:38.451Z,21.12
2018-11-21T02:22:41.012Z,23.73
2018-11-21T02:29:05.757Z,22.73
2018-11-21T02:32:08.955Z,22.65
2018-11-21T02:35:18.748Z,21.23
2018-11-21T02:38:09.352Z,21.37
2018-11-21T02:41:19.390Z,25.30
2018-11-21T02:44:22.952Z,27.05
2018-11-21T02:47:32.554Z,20.90
2018-11-21T02:50:32.934Z,23.47
2018-11-21T02:53:36.092Z,26.05
2018-11-21T02:57:25.614Z,24.72
2018-11-21T03:00:28.476Z,28.52
2018-11-21T03:03:30.779Z,27.13
2018-11-21T03:06:40.567Z,23.30
2018-11-21T03:09:42.815Z,23.40
2018-11-21T03:12:52.053Z,25.48
2018-11-21T03:15:54.777Z,25.50
2018-11-21T03:22:11.852Z,24.23
2018-11-21T03:25:21.473Z,25.00
2018-11-21T03:28:23.541Z,25.97
2018-11-21T03:34:39.715Z,26.48
2018-11-21T03:37:48.927Z,27.00
2018-11-21T03:40:49.500Z,25.52
2018-11-21T03:43:58.726Z,25.92
2018-11-21T03:46:59.286Z,27.52
2018-11-21T03:50:10.088Z,26.23
2018-11-21T03:53:12.395Z,28.73
2018-11-21T04:02:51.938Z,28.30
2018-11-21T04:06:01.777Z,30.23
2018-11-21T04:09:06.880Z,29.98
2018-11-21T04:15:23.813Z,26.62
2018-11-21T04:21:40.916Z,26.70
2018-11-21T04:27:58.196Z,32.58
2018-11-21T04:34:16.176Z,33.10
2018-11-21T04:37:25.680Z,31.12
2018-11-21T04:40:27.800Z,29.20
2018-11-21T04:43:37.841Z,30.25
2018-11-21T04:46:39.978Z,27.90
2018-11-21T04:52:56.976Z,31.20
2018-11-21T04:59:14.057Z,34.25
2018-11-21T05:05:31.394Z,30.08
2018-11-21T05:08:40.684Z,33.02
2018-11-21T05:11:43.350Z,24.60
2018-11-21T05:14:53.152Z,26.33
2018-11-21T05:17:56.000Z,26.95
2018-11-21T05:21:05.295Z,28.55
2018-11-21T05:24:08.037Z,29.45
2018-11-21T05:30:26.567Z,28.55
2018-11-21T05:36:44.644Z,32.08
2018-11-21T05:43:02.125Z,31.68
2018-11-21T05:46:11.510Z,32.48
2018-11-21T05:49:14.015Z,31.55
2018-11-21T05:52:23.637Z,30.02
2018-11-21T05:55:26.374Z,34.00
2018-11-21T05:58:36.313Z,35.08
2018-11-21T06:01:38.832Z,31.27
2018-11-21T06:08:03.975Z,29.52
2018-11-21T06:11:06.464Z,30.12
2018-11-21T06:14:16.320Z,31.57
2018-11-21T06:17:18.922Z,28.92
2018-11-21T06:20:28.189Z,34.63
2018-11-21T06:23:31.401Z,31.10
2018-11-21T06:29:48.369Z,31.35
2018-11-21T06:36:06.636Z,33.28
2018-11-21T06:39:16.680Z,32.63
2018-11-21T06:42:19.143Z,32.45
2018-11-21T06:45:29.519Z,35.17
2018-11-21T06:48:32.326Z,31.37
2018-11-21T06:51:41.606Z,34.20
2018-11-21T06:54:43.653Z,32.78
2018-11-21T07:01:01.257Z,31.42
2018-11-21T07:04:10.640Z,33.53
2018-11-21T07:07:13.183Z,36.45
2018-11-21T07:10:16.103Z,35.20
2018-11-21T07:16:35.242Z,32.08
2018-11-21T07:22:50.227Z,32.65
2018-11-21T07:29:08.216Z,30.77
2018-11-21T07:32:18.065Z,33.80
2018-11-21T07:35:20.512Z,31.48
2018-11-21T07:38:30.626Z,34.23
2018-11-21T07:41:33.591Z,27.87
2018-11-21T07:48:10.153Z,31.48
2018-11-21T07:51:12.458Z,33.25
2018-11-21T07:54:21.946Z,28.85
2018-11-21T08:01:18.550Z,30.10
2018-11-21T08:04:33.514Z,33.95
2018-11-21T08:07:40.924Z,30.40
2018-11-21T08:14:37.837Z,35.15
2018-11-21T08:17:59.226Z,31.15
2018-11-21T08:21:27.486Z,29.55
2018-11-21T08:24:36.388Z,34.15
2018-11-21T08:27:38.328Z,31.33
2018-11-21T08:30:40.304Z,32.78
2018-11-21T08:33:49.979Z,26.37
2018-11-21T08:36:52.520Z,36.80
2018-11-21T08:39:53.406Z,29.00
2018-11-21T08:43:03.424Z,30.60
2018-11-21T08:46:06.389Z,30.80
2018-11-21T08:52:23.176Z,31.20
2018-11-21T08:58:40.187Z,29.32
2018-11-21T09:04:57.533Z,29.50
2018-11-21T09:11:28.456Z,32.40
2018-11-21T09:14:30.644Z,32.50
2018-11-21T09:17:33.371Z,34.88
2018-11-21T09:20:42.625Z,30.10
2018-11-21T09:23:44.883Z,31.25
2018-11-21T09:30:23.373Z,26.62
2018-11-21T09:33:26.015Z,31.95
2018-11-21T09:36:35.508Z,30.40
2018-11-21T09:39:37.597Z,30.45
2018-11-21T09:42:48.697Z,31.12
2018-11-21T09:45:50.950Z,31.07
2018-11-21T09:52:15.528Z,28.12
2018-11-21T09:55:18.834Z,32.45
2018-11-21T09:58:28.593Z,31.73
2018-11-21T10:01:49.884Z,29.75
2018-11-21T10:04:59.103Z,33.63
2018-11-21T10:08:04.540Z,31.75
2018-11-21T10:14:23.123Z,29.50
2018-11-21T10:17:33.073Z,33.67
2018-11-21T10:20:35.724Z,29.50
2018-11-21T10:23:39.124Z,35.68
2018-11-21T10:30:09.751Z,34.67
2018-11-21T10:33:12.156Z,30.02
2018-11-21T10:36:22.188Z,29.52
2018-11-21T10:39:24.775Z,29.65
2018-11-21T10:42:18.287Z,34.67
2018-11-21T10:45:21.261Z,34.10
2018-11-21T10:48:23.796Z,32.98
2018-11-21T10:51:33.132Z,33.83
2018-11-21T10:57:39.242Z,32.60
2018-11-21T11:01:07.865Z,31.52
2018-11-21T11:04:18.692Z,33.23
2018-11-21T11:07:45.759Z,33.45
2018-11-21T11:10:59.190Z,30.32
2018-11-21T11:14:27.653Z,31.12
2018-11-21T11:17:49.288Z,31.48
2018-11-21T11:21:11.685Z,29.50
2018-11-21T11:24:39.514Z,30.35
2018-11-21T11:28:00.452Z,30.30
2018-11-21T11:31:29.077Z,29.75
2018-11-21T11:34:50.755Z,34.15
2018-11-21T11:38:12.360Z,33.48
2018-11-21T11:41:40.849Z,30.37
2018-11-21T11:44:50.526Z,31.05
2018-11-21T11:48:14.188Z,30.60
2018-11-21T11:51:35.771Z,32.23
2018-11-21T11:55:04.406Z,29.18
2018-11-21T11:58:28.002Z,29.52
2018-11-21T12:01:48.979Z,30.23
2018-11-21T12:05:17.337Z,37.53
2018-11-21T12:08:26.824Z,41.60
2018-11-21T12:11:55.197Z,28.12
2018-11-21T12:15:16.348Z,27.75
2018-11-21T12:18:44.966Z,29.70
2018-11-21T12:25:19.064Z,29.63
2018-11-21T12:28:47.440Z,32.60
2018-11-21T12:32:08.886Z,30.55
2018-11-21T12:39:04.884Z,31.90
2018-11-21T12:42:25.913Z,26.37
2018-11-21T12:45:54.518Z,33.55
2018-11-21T12:49:16.147Z,29.95
2018-11-21T12:52:44.653Z,29.63
2018-11-21T12:56:08.651Z,29.27
2018-11-21T12:59:36.900Z,28.95
2018-11-21T13:02:58.794Z,34.92
2018-11-21T13:06:08.624Z,39.08
2018-11-21T13:09:29.653Z,32.28
2018-11-21T13:12:51.470Z,31.37
2018-11-21T13:16:08.674Z,33.53
2018-11-21T13:19:30.191Z,35.25
2018-11-21T13:26:10.791Z,30.12
2018-11-21T13:29:39.470Z,29.98
2018-11-21T13:33:06.702Z,30.55
2018-11-21T13:36:18.236Z,32.73
2018-11-21T13:39:46.597Z,32.00
2018-11-21T13:43:06.261Z,29.42
2018-11-21T13:49:34.638Z,33.10
2018-11-21T13:53:03.274Z,30.65
2018-11-21T13:56:06.077Z,28.95
2018-11-21T13:59:08.543Z,31.00
2018-11-21T14:02:17.926Z,31.00
2018-11-21T14:05:19.808Z,29.67
2018-11-21T14:08:22.313Z,31.48
2018-11-21T14:11:12.474Z,28.02
2018-11-21T14:14:14.677Z,28.25
2018-11-21T14:20:31.583Z,30.45
2018-11-21T14:26:49.097Z,32.93
2018-11-21T14:33:06.457Z,35.83
2018-11-21T14:39:23.425Z,31.90
2018-11-21T14:42:32.981Z,30.23
2018-11-21T14:45:36.055Z,30.62
2018-11-21T14:48:45.652Z,30.80
2018-11-21T14:51:47.656Z,29.18
2018-11-21T14:58:05.407Z,33.45
2018-11-21T15:04:29.054Z,32.05
2018-11-21T15:07:31.758Z,36.25
2018-11-21T15:10:40.970Z,36.40
2018-11-21T15:13:43.331Z,30.00
2018-11-21T15:20:00.195Z,44.95
2018-11-21T15:26:18.650Z,32.50
2018-11-21T15:29:28.279Z,31.97
2018-11-21T15:32:30.236Z,38.75
2018-11-21T15:35:39.471Z,34.18
2018-11-21T15:38:41.884Z,32.05
2018-11-21T15:41:51.340Z,37.65
2018-11-21T15:44:54.414Z,38.48
2018-11-21T15:48:04.036Z,32.58
2018-11-21T15:51:06.710Z,31.40
2018-11-21T15:54:09.666Z,32.03
2018-11-21T15:57:19.458Z,38.80
2018-11-21T16:00:24.051Z,33.33
2018-11-21T16:03:33.646Z,32.38
2018-11-21T16:06:36.354Z,39.27
2018-11-21T16:12:53.602Z,36.88
2018-11-21T16:19:10.892Z,34.98
2018-11-21T16:25:28.452Z,42.48
2018-11-21T16:28:37.958Z,35.88
2018-11-21T16:31:42.799Z,36.30
2018-11-21T16:34:30.608Z,39.15
2018-11-21T16:37:19.720Z,34.95
2018-11-21T16:40:23.227Z,37.53
2018-11-21T16:43:12.288Z,36.40
2018-11-21T16:46:00.956Z,40.58
2018-11-21T16:48:49.313Z,35.95
2018-11-21T16:51:38.242Z,35.88
2018-11-21T16:54:26.948Z,37.00
2018-11-21T16:57:15.765Z,35.17
2018-11-21T17:00:05.815Z,39.15
2018-11-21T17:02:54.221Z,36.55
2018-11-21T17:05:42.780Z,37.53
2018-11-21T17:08:31.187Z,30.88
2018-11-21T17:11:19.480Z,34.27
2018-11-21T17:14:08.832Z,35.03
2018-11-21T17:16:57.230Z,38.20
2018-11-21T17:19:46.163Z,37.80
2018-11-21T17:22:34.865Z,42.65
2018-11-21T17:25:25.972Z,31.68
2018-11-21T17:28:14.509Z,31.50
2018-11-21T17:31:03.084Z,35.80
2018-11-21T17:33:52.294Z,38.88
2018-11-21T17:36:40.069Z,33.65
2018-11-21T17:39:28.776Z,35.92
2018-11-21T17:42:17.085Z,30.57
2018-11-21T17:45:05.994Z,39.80
